Port Alsworth, AK

10:55 AM AKST on February 24, 2017 (GMT -0900)
Iliamna | | Change Station

Elev 184 ft 59.75 °N, 154.91 °W | Updated 7 minutes ago

Overcast
Overcast
34 °F
Feels Like 30 °F
N
5
Wind Variable Wind from West

Today
High -- | Low -- °F
--% Chance of Precip.
Yesterday
High -- | Low -- °F
Precip. -- in
Pressure 30.45 in
Visibility 10.0 miles
Clouds Scattered Clouds 1600 ft
Overcast 2500 ft
Windchill 30 °F
Dew Point 34 °F
Humidity 100%
Rainfall 0.06 in
Snow Depth Not available.
8:29 AM 6:32 PM
Waning Crescent, 4% visible
SPECI PAIL 241948Z 26004KT 10SM SCT016 OVC025 01/01 A3045 RMK AO2
Pressure 30.45 in
Visibility 10.0 miles
Clouds Scattered Clouds 1600 ft
Overcast 2500 ft
Windchill 30 °F
Dew Point 34 °F
Humidity 100%
Rainfall 0.06 in
Snow Depth Not available.
8:29 AM 6:32 PM
Waning Crescent, 4% visible
SPECI PAIL 241948Z 26004KT 10SM SCT016 OVC025 01/01 A3045 RMK AO2

Get Your Daily Forecast Email!

Thanks for signing up!

Be on the lookout for a verification email in your inbox.

You'll start receiving the daily forecast at 8 AM.

×

10-Day Weather Forecast

Almanac

Astronomy

Feb. 24, 2017 Rise Set
Actual Time
Civil Twilight
Nautical Twilight
Astronomical Twilight
Moon
Length of Visible Light
Length of Day
Tomorrow will be .
, % of the Moon is Illuminated

Today's Extremes

State Highs State Lows

Community

WunderPhotos

Upload Photos

1,962,540 photos uploaded!

WunderBlog® & News

Nearby

Air Quality

  Air Quality AQ Index Pollutant
Not available.

Snow Depth

Station Depth Elevation

Earthquake Activity

City Distance Mag. Time & Date
Minimum magnitude displayed is 2.5.

Coastal Water Temperatures

Place Temperature

Stations

Nearby Weather Stations

Station Location Temp. Windchill Dew Point Humidity Wind Precip. Elev Updated Type
                   

Watches & Warnings

There are currently no watches in effect.